Time;durP1;ratioP1;P1;durP2;ratioP2;P2;SDS_P1;SDS_P2;PMS_P1;PMS_P2;Temp;Humidity;BMP_temperature;BMP_pressure;BME280_temperature;BME280_humidity;BME280_pressure;Samples;Min_cycle;Max_cycle;Signal;HPM_P1;HPM_P2
2023/06/30 00:02:23;;;;;;;14.70;13.60;;;;;;;12.49;100.00;95937.38;4940420;28;20081;-90
2023/06/30 00:04:49;;;;;;;15.43;14.13;;;;;;;12.23;100.00;95938.44;4929877;29;20560;-88
2023/06/30 00:07:14;;;;;;;13.57;12.60;;;;;;;12.38;100.00;95962.84;4948849;29;20027;-89
2023/06/30 00:09:39;;;;;;;13.50;12.43;;;;;;;12.53;100.00;95964.69;4938177;28;20038;-89
2023/06/30 00:12:05;;;;;;;13.85;12.43;;;;;;;12.30;100.00;95929.84;4933713;28;20145;-90
2023/06/30 00:14:31;;;;;;;14.13;13.13;;;;;;;12.16;100.00;95951.22;4941337;28;20022;-85
2023/06/30 00:19:31;;;;;;;15.52;14.18;;;;;;;12.27;100.00;96004.66;5700369;23;20087;-85
2023/06/30 00:21:57;;;;;;;14.10;13.15;;;;;;;12.29;100.00;95994.94;4936842;28;20066;-87
2023/06/30 00:24:23;;;;;;;16.75;15.45;;;;;;;12.15;100.00;95978.97;4943490;28;20077;-88
2023/06/30 00:26:54;;;;;;;13.85;12.77;;;;;;;12.26;100.00;95988.28;4950534;28;20019;-87
2023/06/30 00:29:19;;;;;;;14.57;13.35;;;;;;;12.25;100.00;95976.25;4924617;28;20043;-87
2023/06/30 00:31:45;;;;;;;13.63;12.75;;;;;;;12.19;100.00;95963.09;4969190;28;20034;-89
2023/06/30 00:34:10;;;;;;;14.10;12.95;;;;;;;12.17;100.00;95965.03;4948192;28;20160;-89
2023/06/30 00:36:36;;;;;;;14.85;13.35;;;;;;;12.09;100.00;95979.59;4944022;28;20786;-89
2023/06/30 00:39:02;;;;;;;14.00;13.02;;;;;;;12.19;100.00;95999.44;4948473;28;20090;-90
2023/06/30 00:41:28;;;;;;;15.23;14.13;;;;;;;12.05;100.00;95987.84;4972293;28;20019;-89
2023/06/30 00:43:54;;;;;;;15.05;13.63;;;;;;;12.00;100.00;95990.91;4966185;28;20073;-86
2023/06/30 00:46:19;;;;;;;13.48;12.48;;;;;;;12.18;100.00;95998.63;4956629;28;20043;-88
2023/06/30 00:48:45;;;;;;;15.18;13.80;;;;;;;12.11;100.00;95987.22;4931089;28;20031;-90
2023/06/30 00:51:11;;;;;;;14.60;13.07;;;;;;;11.87;100.00;95958.53;4951029;28;20568;-87
2023/06/30 01:07:02;;;;;;;14.23;13.13;;;;;;;11.77;100.00;96004.53;5921188;23;20373;-86
2023/06/30 01:09:36;;;;;;;13.75;12.55;;;;;;;11.93;100.00;96002.88;4951867;28;20085;-89
2023/06/30 01:12:02;;;;;;;12.93;11.85;;;;;;;11.96;100.00;95997.38;4934549;29;20034;-88
2023/06/30 01:14:29;;;;;;;12.95;12.00;;;;;;;11.93;100.00;95973.50;4938335;28;20031;-88
2023/06/30 01:16:55;;;;;;;14.48;13.50;;;;;;;11.89;100.00;95946.19;4948028;28;20531;-89
2023/06/30 01:19:26;;;;;;;14.18;13.18;;;;;;;11.78;100.00;95939.50;4948775;28;20027;-89
2023/06/30 01:21:54;;;;;;;13.45;12.45;;;;;;;11.93;100.00;95950.13;4980778;28;20096;-89
2023/06/30 01:24:20;;;;;;;12.50;11.60;;;;;;;11.89;100.00;95928.84;4956482;28;20038;-87
2023/06/30 01:26:49;;;;;;;13.07;12.07;;;;;;;11.89;100.00;95915.06;4954628;28;20485;-90
2023/06/30 01:29:15;;;;;;;12.43;11.38;;;;;;;11.72;100.00;95906.38;4969441;28;20042;-88
2023/06/30 01:31:43;;;;;;;14.30;12.95;;;;;;;11.76;100.00;95927.63;4970682;28;20034;-88
2023/06/30 01:44:36;;;;;;;13.90;12.85;;;;;;;11.54;100.00;95967.84;5931179;23;22125;-86
2023/06/30 01:47:02;;;;;;;13.88;12.80;;;;;;;11.55;100.00;95965.13;4944729;28;20528;-89
2023/06/30 01:49:28;;;;;;;13.35;12.45;;;;;;;11.48;100.00;95947.69;4939863;28;20130;-89
2023/06/30 01:51:54;;;;;;;14.82;13.55;;;;;;;11.52;100.00;95955.03;4939362;28;20110;-86
2023/06/30 01:54:19;;;;;;;14.40;13.38;;;;;;;11.60;100.00;95956.88;4954586;28;20043;-87
2023/06/30 01:56:48;;;;;;;13.50;12.10;;;;;;;11.71;100.00;95955.84;4937708;28;20037;-91
2023/06/30 02:12:10;;;;;;;13.13;12.07;;;;;;;11.38;100.00;96004.03;5359262;23;20058;-85
2023/06/30 02:14:35;;;;;;;12.45;11.65;;;;;;;11.31;100.00;95990.03;4927796;28;20389;-87
2023/06/30 02:17:01;;;;;;;13.10;12.13;;;;;;;11.52;100.00;96008.72;4934188;28;20472;-87
2023/06/30 02:19:26;;;;;;;14.68;13.30;;;;;;;11.37;100.00;95979.88;4949896;28;20023;-87
2023/06/30 02:21:51;;;;;;;13.68;12.50;;;;;;;11.29;100.00;95956.47;4987039;28;20077;-87
2023/06/30 02:24:17;;;;;;;13.77;12.70;;;;;;;11.29;100.00;95958.25;4974929;28;20030;-87
2023/06/30 02:26:44;;;;;;;13.18;12.27;;;;;;;11.30;100.00;95972.88;4959098;28;20022;-84
2023/06/30 02:36:55;;;;;;;13.65;12.43;;;;;;;11.33;100.00;95985.53;5881856;23;20027;-85
2023/06/30 02:39:21;;;;;;;13.45;12.32;;;;;;;11.28;100.00;95969.59;5032094;28;20037;-88
2023/06/30 02:41:46;;;;;;;13.25;12.02;;;;;;;11.23;100.00;95964.88;4997442;28;20029;-89
2023/06/30 02:44:12;;;;;;;13.43;12.48;;;;;;;11.25;100.00;95981.06;4994058;28;20110;-87
2023/06/30 02:46:37;;;;;;;13.73;12.82;;;;;;;11.24;100.00;95973.47;5026533;28;20033;-90
2023/06/30 02:49:03;;;;;;;14.32;13.32;;;;;;;11.14;100.00;95975.31;5011838;28;20032;-86
2023/06/30 02:51:28;;;;;;;14.32;13.32;;;;;;;11.14;100.00;95983.91;5050261;28;20041;-84
2023/06/30 02:53:54;;;;;;;14.00;13.00;;;;;;;11.14;100.00;95990.88;5053869;28;20026;-84
2023/06/30 02:56:19;;;;;;;12.88;11.98;;;;;;;11.13;100.00;95995.25;5030674;28;20383;-88
2023/06/30 03:03:55;;;;;;;13.23;12.07;;;;;;;11.08;100.00;96006.03;5471699;23;20612;-86
2023/06/30 03:06:20;;;;;;;13.75;12.52;;;;;;;11.23;100.00;96000.34;5010790;28;20033;-87
2023/06/30 03:08:46;;;;;;;13.75;12.55;;;;;;;11.25;100.00;95975.06;4994360;28;20521;-88
2023/06/30 03:11:12;;;;;;;13.90;12.80;;;;;;;11.21;100.00;95951.22;4994805;28;20435;-89
2023/06/30 03:18:47;;;;;;;13.20;11.95;;;;;;;11.44;100.00;95980.09;5939030;23;20084;-88
2023/06/30 03:21:13;;;;;;;13.70;12.68;;;;;;;11.49;100.00;95962.31;5014637;28;20495;-87
2023/06/30 03:23:40;;;;;;;13.73;12.73;;;;;;;11.50;100.00;95931.00;5016232;28;20540;-89
2023/06/30 03:26:05;;;;;;;12.70;11.48;;;;;;;11.47;100.00;95913.16;5009419;28;20036;-87
2023/06/30 03:28:31;;;;;;;12.02;11.00;;;;;;;11.78;100.00;95890.19;5010019;28;20025;-87
2023/06/30 03:30:56;;;;;;;11.35;10.45;;;;;;;11.92;100.00;95832.50;5005954;28;20552;-89
2023/06/30 03:33:22;;;;;;;9.38;8.48;;;;;;;12.72;100.00;95762.63;4992707;28;20042;-87
2023/06/30 03:35:49;;;;;;;7.07;6.57;;;;;;;14.48;100.00;95361.53;5008825;28;20029;-88
2023/06/30 03:38:15;;;;;;;5.13;4.82;;;;;;;15.71;100.00;95030.34;5009904;28;20029;-88
2023/06/30 03:40:41;;;;;;;6.65;5.43;;;;;;;16.17;100.00;94926.59;4992811;28;20036;-87
2023/06/30 03:43:06;;;;;;;4.35;3.95;;;;;;;16.73;100.00;94892.00;5010544;28;20084;-87
2023/06/30 03:45:32;;;;;;;5.57;5.05;;;;;;;17.25;100.00;94881.19;5010388;28;20487;-86
2023/06/30 03:47:57;;;;;;;6.80;6.30;;;;;;;17.54;100.00;94866.63;5009646;28;20044;-87
2023/06/30 03:50:23;;;;;;;6.88;6.38;;;;;;;17.99;100.00;94866.41;4994157;28;20041;-88
2023/06/30 03:52:48;;;;;;;17.13;8.25;;;;;;;18.36;100.00;94853.09;4992288;28;20025;-86
2023/06/30 03:55:13;;;;;;;10.93;7.90;;;;;;;18.46;100.00;94836.84;5010662;28;20021;-86
2023/06/30 03:57:39;;;;;;;6.25;5.78;;;;;;;18.66;100.00;94831.31;4992421;28;20551;-86
2023/06/30 04:00:06;;;;;;;5.75;5.25;;;;;;;18.79;100.00;94837.19;5010651;28;20026;-86
2023/06/30 04:02:32;;;;;;;5.47;5.10;;;;;;;19.05;100.00;94849.13;5009739;28;20167;-86
2023/06/30 04:04:57;;;;;;;5.75;5.32;;;;;;;19.44;100.00;94840.66;5009770;28;20128;-87
2023/06/30 04:07:23;;;;;;;6.47;6.07;;;;;;;19.19;100.00;94834.78;5010537;28;20036;-82
2023/06/30 04:09:48;;;;;;;6.28;5.70;;;;;;;19.67;100.00;94828.53;5026326;28;20029;-85
2023/06/30 04:12:13;;;;;;;6.45;5.40;;;;;;;19.71;100.00;94835.75;5010512;28;20094;-86
2023/06/30 04:14:39;;;;;;;5.82;5.43;;;;;;;20.03;100.00;94833.53;5027064;28;20036;-93
2023/06/30 04:17:05;;;;;;;6.10;5.70;;;;;;;19.64;100.00;94839.50;4995156;28;20030;-94
2023/06/30 04:19:30;;;;;;;5.70;5.40;;;;;;;19.89;100.00;94840.84;5008781;28;20045;-82
2023/06/30 04:21:56;;;;;;;6.30;5.80;;;;;;;19.88;100.00;94838.44;5027735;28;20041;-81
2023/06/30 04:24:21;;;;;;;6.28;5.70;;;;;;;20.08;100.00;94838.88;5010561;28;20029;-88
2023/06/30 04:26:47;;;;;;;5.50;5.13;;;;;;;20.80;100.00;94836.63;5009422;28;20109;-83
2023/06/30 04:29:12;;;;;;;5.80;5.30;;;;;;;20.66;100.00;94830.03;4993980;28;20099;-86
2023/06/30 04:31:37;;;;;;;6.00;4.68;;;;;;;21.72;100.00;94839.69;5008409;28;20120;-86
2023/06/30 04:34:03;;;;;;;5.63;4.95;;;;;;;21.22;100.00;94834.47;5010193;28;20025;-85
2023/06/30 04:36:31;;;;;;;5.22;4.82;;;;;;;21.87;100.00;94840.69;5026196;28;20026;-85
2023/06/30 04:38:57;;;;;;;3.75;3.40;;;;;;;22.83;96.94;94841.13;4993785;28;20033;-86
2023/06/30 04:41:23;;;;;;;4.20;3.42;;;;;;;23.37;90.93;94834.72;4992965;28;20539;-87
2023/06/30 04:43:48;;;;;;;4.60;3.60;;;;;;;23.46;88.58;94832.44;5009772;28;20080;-87
2023/06/30 04:46:15;;;;;;;3.58;3.28;;;;;;;24.10;83.71;94827.81;5027799;28;20032;-88
2023/06/30 04:48:40;;;;;;;3.28;2.85;;;;;;;23.87;82.63;94817.63;4992328;28;20038;-88
2023/06/30 04:51:06;;;;;;;3.50;3.20;;;;;;;24.32;78.28;94830.31;4994048;28;20384;-87
2023/06/30 04:53:31;;;;;;;3.20;3.00;;;;;;;23.97;86.07;94826.41;5008478;28;20029;-87
2023/06/30 04:55:57;;;;;;;4.82;3.30;;;;;;;24.58;82.92;94832.00;4993510;28;20454;-86
2023/06/30 04:58:22;;;;;;;4.53;3.65;;;;;;;24.97;80.36;94829.72;5008480;28;20496;-86
2023/06/30 05:00:49;;;;;;;3.22;3.13;;;;;;;25.09;79.41;94840.88;4993392;28;20559;-87
2023/06/30 05:03:15;;;;;;;3.05;2.85;;;;;;;25.58;76.25;94842.00;5009475;28;20506;-87
2023/06/30 05:05:40;;;;;;;3.22;3.03;;;;;;;25.48;75.04;94831.34;5012615;28;20030;-87
2023/06/30 05:08:06;;;;;;;3.70;3.40;;;;;;;25.59;74.74;94830.28;5031434;28;20172;-87
2023/06/30 05:10:31;;;;;;;5.07;3.67;;;;;;;26.11;70.68;94826.47;5012115;28;20029;-84
2023/06/30 05:12:57;;;;;;;3.38;3.10;;;;;;;26.39;69.37;94825.91;4997064;28;20030;-82
2023/06/30 05:15:22;;;;;;;3.08;2.80;;;;;;;26.82;68.47;94820.91;4995644;28;20029;-89
2023/06/30 05:17:48;;;;;;;7.35;3.30;;;;;;;27.37;66.34;94823.19;5013338;28;20022;-84
2023/06/30 05:20:13;;;;;;;5.22;3.47;;;;;;;26.78;68.00;94828.59;5012173;28;20049;-84
2023/06/30 05:22:39;;;;;;;4.00;3.70;;;;;;;27.49;62.82;94831.63;5013157;28;20029;-87
2023/06/30 05:25:05;;;;;;;4.00;3.65;;;;;;;28.60;61.12;94835.03;4996838;28;20024;-86
2023/06/30 05:27:30;;;;;;;4.97;3.20;;;;;;;29.08;57.55;94830.41;5012179;28;20107;-87
2023/06/30 05:29:56;;;;;;;3.10;2.90;;;;;;;30.45;52.39;94836.94;5013483;28;20531;-88
2023/06/30 05:32:22;;;;;;;3.30;3.00;;;;;;;30.67;51.86;94842.38;5011790;28;20041;-83
2023/06/30 05:34:49;;;;;;;5.85;2.95;;;;;;;31.00;49.79;94846.50;4996963;28;20410;-83
2023/06/30 05:37:15;;;;;;;3.10;2.90;;;;;;;31.41;49.05;94843.69;5011531;28;20118;-86
2023/06/30 05:39:40;;;;;;;3.13;2.93;;;;;;;32.02;47.82;94845.69;5013469;28;20509;-85
2023/06/30 05:42:06;;;;;;;3.67;2.90;;;;;;;32.58;46.85;94845.03;4995771;28;20136;-84
2023/06/30 05:44:31;;;;;;;3.90;2.57;;;;;;;32.55;46.53;94848.31;4995822;28;20025;-86
2023/06/30 05:46:57;;;;;;;3.47;3.17;;;;;;;33.22;43.33;94837.25;4996468;28;20068;-86
2023/06/30 05:49:22;;;;;;;4.00;3.70;;;;;;;32.58;43.77;94830.81;5011227;28;20096;-86
2023/06/30 05:51:48;;;;;;;3.00;2.80;;;;;;;32.88;43.97;94836.09;4996605;28;20434;-87
2023/06/30 05:54:13;;;;;;;4.97;2.80;;;;;;;33.21;42.96;94841.03;5011363;28;20061;-90
2023/06/30 05:56:39;;;;;;;2.93;2.73;;;;;;;32.73;42.79;94847.28;4997464;28;20030;-89
2023/06/30 05:59:09;;;;;;;4.03;3.00;;;;;;;33.66;42.17;94839.63;4996363;28;20033;-91
2023/06/30 06:01:36;;;;;;;3.97;2.85;;;;;;;33.36;42.21;94844.03;5013855;28;20025;-85
2023/06/30 06:04:02;;;;;;;2.97;2.60;;;;;;;34.27;40.02;94845.66;5012966;28;20037;-92
2023/06/30 06:06:27;;;;;;;2.77;2.47;;;;;;;35.02;39.37;94846.75;4995433;28;20525;-88
2023/06/30 06:08:53;;;;;;;3.07;2.80;;;;;;;35.06;38.19;94845.78;5012824;28;20043;-87
2023/06/30 06:11:18;;;;;;;2.97;2.77;;;;;;;33.55;38.80;94849.13;4994438;28;20029;-89
2023/06/30 06:13:44;;;;;;;2.80;2.60;;;;;;;34.73;39.42;94847.56;4996232;28;20038;-87
2023/06/30 06:16:09;;;;;;;4.07;2.50;;;;;;;35.14;38.40;94847.63;4994795;28;20053;-90
2023/06/30 06:18:35;;;;;;;2.63;2.53;;;;;;;35.12;38.42;94846.38;5013101;28;20092;-88
2023/06/30 06:21:02;;;;;;;3.37;3.07;;;;;;;35.45;38.32;94847.22;4996164;28;20040;-89
2023/06/30 06:23:28;;;;;;;3.58;3.25;;;;;;;34.78;38.16;94856.22;5012412;28;20037;-91
2023/06/30 06:25:53;;;;;;;4.32;3.35;;;;;;;35.26;37.18;94852.28;5013210;28;20025;-90
2023/06/30 06:28:19;;;;;;;3.60;3.30;;;;;;;34.04;38.29;94846.97;4995407;28;20516;-89
2023/06/30 06:30:45;;;;;;;4.20;3.90;;;;;;;31.74;41.44;94852.31;4996560;28;20017;-89
2023/06/30 06:33:10;;;;;;;3.42;3.22;;;;;;;28.56;52.64;94844.69;5011011;28;20061;-83
2023/06/30 06:35:36;;;;;;;3.80;3.50;;;;;;;27.42;57.45;94857.72;4996562;28;20060;-93
2023/06/30 06:38:01;;;;;;;4.10;3.70;;;;;;;27.28;60.87;94853.34;5011892;28;20472;-89
2023/06/30 06:40:30;;;;;;;2.92;2.72;;;;;;;26.64;58.80;94852.34;4995984;28;20029;-92
2023/06/30 06:42:56;;;;;;;3.38;3.08;;;;;;;27.75;58.26;94848.97;4996212;28;20070;-90
2023/06/30 06:45:22;;;;;;;4.90;3.42;;;;;;;30.58;51.54;94842.28;5011993;28;20130;-85
2023/06/30 06:48:17;;;;;;;3.92;3.47;;;;;;;33.73;42.54;94839.16;5011920;28;20037;-86
2023/06/30 06:50:42;;;;;;;3.92;3.63;;;;;;;32.82;42.69;94841.91;5009879;28;20117;-85
2023/06/30 06:53:08;;;;;;;3.92;3.63;;;;;;;29.95;50.41;94850.16;5012692;28;20660;-92
2023/06/30 06:55:35;;;;;;;8.77;4.00;;;;;;;27.63;59.74;94856.53;5011603;28;20061;-92
2023/06/30 06:58:00;;;;;;;4.15;3.67;;;;;;;27.34;54.78;94846.91;5011713;28;20468;-86
2023/06/30 07:00:25;;;;;;;4.97;4.20;;;;;;;27.68;57.45;94850.38;4995908;28;20033;-93
2023/06/30 07:02:52;;;;;;;3.25;3.05;;;;;;;28.33;59.25;94845.47;5010680;28;20479;-92
2023/06/30 07:05:18;;;;;;;2.80;2.60;;;;;;;27.95;56.28;94848.00;5011924;28;20025;-89
2023/06/30 07:07:43;;;;;;;3.10;2.80;;;;;;;27.59;53.77;94841.41;4994390;28;20021;-87
2023/06/30 07:10:09;;;;;;;4.03;2.90;;;;;;;29.74;50.60;94841.66;5012615;28;20029;-91
2023/06/30 07:12:34;;;;;;;3.67;3.10;;;;;;;32.39;44.61;94847.16;5011456;28;20034;-90
2023/06/30 07:15:00;;;;;;;4.30;3.53;;;;;;;28.75;51.56;94846.34;5011361;28;20074;-91
2023/06/30 07:17:25;;;;;;;4.30;3.65;;;;;;;26.66;61.29;94847.56;5011812;28;20024;-90
2023/06/30 07:19:50;;;;;;;4.15;3.85;;;;;;;26.39;63.95;94833.88;5027980;28;20065;-88
2023/06/30 07:22:16;;;;;;;4.30;4.00;;;;;;;25.47;69.18;94827.09;5012181;28;20029;-93
2023/06/30 07:24:41;;;;;;;4.20;3.90;;;;;;;25.76;70.13;94834.53;5010240;28;20506;-92
2023/06/30 07:27:07;;;;;;;4.25;3.85;;;;;;;26.09;68.13;94828.63;5011599;28;20026;-92
2023/06/30 07:29:33;;;;;;;4.13;3.92;;;;;;;25.67;69.00;94827.13;5010674;28;20046;-87
2023/06/30 07:31:58;;;;;;;4.32;4.00;;;;;;;25.97;72.10;94814.84;4996308;28;20025;-91
2023/06/30 07:34:24;;;;;;;4.38;4.07;;;;;;;26.34;72.69;94825.91;5012721;28;20056;-92
2023/06/30 07:36:52;;;;;;;4.78;4.25;;;;;;;26.53;72.20;94829.53;4994993;28;20030;-91
2023/06/30 07:39:18;;;;;;;4.85;4.40;;;;;;;25.29;71.63;94813.56;5029225;28;20487;-93
2023/06/30 07:41:43;;;;;;;4.50;4.20;;;;;;;25.39;76.02;94821.53;5010042;28;20032;-89
2023/06/30 07:44:11;;;;;;;4.88;4.47;;;;;;;26.17;75.59;94812.13;4995384;28;20036;-91
2023/06/30 07:46:37;;;;;;;4.43;3.92;;;;;;;25.58;75.84;94826.06;4993530;28;20082;-92
2023/06/30 07:49:02;;;;;;;4.57;4.28;;;;;;;26.15;75.14;94815.06;5029387;28;20034;-90
2023/06/30 07:51:29;;;;;;;4.50;4.10;;;;;;;26.55;70.86;94827.38;5010703;28;20021;-92
2023/06/30 07:53:55;;;;;;;3.83;3.53;;;;;;;26.12;65.71;94820.09;5011394;28;20022;-93
2023/06/30 07:56:20;;;;;;;3.80;3.60;;;;;;;26.27;68.82;94813.97;4995046;28;20067;-92
2023/06/30 07:58:47;;;;;;;4.20;3.90;;;;;;;25.07;70.89;94817.28;5010917;28;20489;-92
2023/06/30 08:01:13;;;;;;;4.00;3.70;;;;;;;25.92;74.38;94806.88;4994968;28;20108;-94
2023/06/30 08:03:39;;;;;;;5.60;3.42;;;;;;;26.30;69.34;94819.53;4993741;28;20053;-93
2023/06/30 08:06:04;;;;;;;5.53;3.10;;;;;;;26.04;70.57;94799.44;5011786;28;20487;-93
2023/06/30 08:08:31;;;;;;;3.08;2.83;;;;;;;26.63;67.30;94800.25;5009364;28;20029;-84
2023/06/30 08:10:57;;;;;;;3.55;3.25;;;;;;;26.06;63.98;94810.56;5011142;28;20251;-92
2023/06/30 08:13:22;;;;;;;3.80;3.20;;;;;;;25.72;65.32;94798.97;5010375;28;20030;-93
2023/06/30 08:15:48;;;;;;;2.70;2.40;;;;;;;26.39;66.66;94799.31;5010886;28;20049;-93
2023/06/30 08:18:13;;;;;;;2.65;2.45;;;;;;;26.16;60.16;94800.75;4994779;28;20026;-93
2023/06/30 08:20:38;;;;;;;2.53;2.33;;;;;;;26.09;65.58;94800.19;5010267;28;20038;-92
2023/06/30 08:23:04;;;;;;;2.75;2.63;;;;;;;26.26;66.36;94797.25;4995164;28;20041;-93
2023/06/30 08:25:29;;;;;;;3.22;3.03;;;;;;;25.47;65.51;94797.09;4993218;28;20056;-89
2023/06/30 08:27:55;;;;;;;3.15;2.85;;;;;;;25.38;65.51;94786.25;5010942;28;20499;-91
2023/06/30 08:30:20;;;;;;;3.30;3.00;;;;;;;24.91;70.48;94796.31;5027376;28;20029;-93
2023/06/30 08:32:46;;;;;;;3.03;2.78;;;;;;;25.18;68.99;94788.91;4994530;28;20112;-90
2023/06/30 08:35:11;;;;;;;3.17;2.88;;;;;;;25.23;67.18;94788.91;5027893;28;20041;-92
2023/06/30 08:37:37;;;;;;;3.33;3.05;;;;;;;24.97;66.98;94784.66;4994265;28;20041;-91
2023/06/30 08:40:04;;;;;;;3.25;2.95;;;;;;;25.18;71.23;94783.59;4999090;28;20033;-93
2023/06/30 08:42:31;;;;;;;3.75;3.13;;;;;;;24.58;69.42;94781.66;4996596;28;20519;-87
2023/06/30 08:44:57;;;;;;;3.33;3.10;;;;;;;25.25;75.14;94783.34;5014455;28;20033;-92
2023/06/30 08:47:28;;;;;;;5.93;2.78;;;;;;;25.45;76.35;94775.38;5013331;28;20079;-92
2023/06/30 08:49:55;;;;;;;3.30;2.85;;;;;;;25.69;69.27;94755.97;5015657;28;20053;-86
2023/06/30 08:52:21;;;;;;;2.95;2.75;;;;;;;25.96;73.60;94768.13;5014062;28;20026;-92
2023/06/30 08:54:47;;;;;;;2.58;2.38;;;;;;;26.09;69.87;94762.22;4997587;28;20025;-93
2023/06/30 08:57:15;;;;;;;3.00;2.80;;;;;;;25.60;73.08;94762.91;5014726;28;20159;-90
2023/06/30 08:59:44;;;;;;;2.78;2.55;;;;;;;25.72;74.44;94756.53;4996857;28;20040;-92
2023/06/30 09:02:09;;;;;;;;;;;;;;;25.66;70.46;94753.84;5015370;28;20041;-91
2023/06/30 09:04:36;;;;;;;2.75;2.50;;;;;;;25.04;72.60;94750.75;5012674;28;19913;-93
2023/06/30 09:07:04;;;;;;;1.80;1.70;;;;;;;25.65;69.87;94754.16;5032241;28;20025;-92
2023/06/30 09:09:45;;;;;;;2.30;2.10;;;;;;;25.79;67.56;94749.03;4997300;28;20035;-94
2023/06/30 09:12:10;;;;;;;3.22;2.60;;;;;;;24.92;68.69;94745.69;4997579;28;20461;-93
2023/06/30 09:14:38;;;;;;;2.67;2.47;;;;;;;23.62;70.03;94744.22;5013621;28;20021;-87
2023/06/30 09:17:04;;;;;;;1.98;1.88;;;;;;;25.23;62.75;94741.19;4996155;28;20032;-87
2023/06/30 09:19:30;;;;;;;1.88;1.60;;;;;;;25.28;60.20;94743.81;5032138;28;20133;-95
2023/06/30 09:21:56;;;;;;;1.63;1.52;;;;;;;25.80;58.90;94740.81;5030151;28;20630;-92
2023/06/30 09:24:22;;;;;;;1.60;1.48;;;;;;;25.83;58.30;94740.28;5014729;28;20095;-93
2023/06/30 09:26:49;;;;;;;1.83;1.40;;;;;;;25.34;54.50;94742.75;5012911;28;20034;-89
2023/06/30 09:29:16;;;;;;;1.67;1.52;;;;;;;25.31;59.55;94737.19;5013885;28;20048;-93
2023/06/30 09:31:42;;;;;;;4.35;2.03;;;;;;;25.41;55.47;94737.97;5013706;28;20415;-92
2023/06/30 09:34:12;;;;;;;3.15;1.70;;;;;;;24.37;60.95;94742.94;5012519;28;20022;-91
2023/06/30 09:36:49;;;;;;;1.60;1.50;;;;;;;24.80;56.03;94739.03;5031486;28;20105;-92
2023/06/30 09:39:15;;;;;;;1.58;1.30;;;;;;;25.30;54.34;94738.25;4996136;28;20041;-91
2023/06/30 09:41:45;;;;;;;1.45;1.30;;;;;;;25.08;54.54;94734.03;4997338;28;20029;-88
2023/06/30 09:44:13;;;;;;;1.38;1.30;;;;;;;24.70;55.94;94725.75;4996523;28;20087;-92
2023/06/30 09:46:46;;;;;;;2.28;1.35;;;;;;;25.53;54.48;94725.22;4997267;28;20065;-93
2023/06/30 09:49:22;;;;;;;1.58;1.42;;;;;;;25.79;58.77;94723.31;5013183;28;20099;-91
2023/06/30 09:51:47;;;;;;;1.48;1.38;;;;;;;25.99;58.52;94723.22;5030098;28;20034;-89
2023/06/30 09:54:16;;;;;;;1.52;1.42;;;;;;;25.36;53.69;94721.28;4996960;28;20021;-91
2023/06/30 09:56:42;;;;;;;2.05;1.20;;;;;;;25.50;52.24;94720.47;5011948;28;20029;-86
2023/06/30 09:59:07;;;;;;;2.70;1.77;;;;;;;25.95;58.48;94724.03;4996678;28;20076;-85
2023/06/30 10:01:34;;;;;;;1.52;1.42;;;;;;;26.18;54.70;94720.78;5012673;28;20061;-93
2023/06/30 10:04:00;;;;;;;1.60;1.50;;;;;;;25.74;54.43;94715.38;4996514;28;20460;-92
2023/06/30 10:06:27;;;;;;;2.45;1.60;;;;;;;26.20;57.07;94708.81;4997233;28;20101;-93
2023/06/30 10:08:56;;;;;;;1.40;1.40;;;;;;;25.97;55.76;94714.75;4995506;28;20033;-93
2023/06/30 10:11:23;;;;;;;1.55;1.45;;;;;;;26.00;55.04;94708.91;5030939;28;20396;-93
2023/06/30 10:13:50;;;;;;;1.50;1.40;;;;;;;25.84;55.57;94703.91;5011641;28;20037;-92
2023/06/30 10:16:16;;;;;;;1.77;1.67;;;;;;;25.79;51.61;94707.38;5013505;28;20108;-92
2023/06/30 10:18:44;;;;;;;2.10;1.90;;;;;;;25.86;50.38;94705.22;5012345;28;20467;-92
2023/06/30 10:21:09;;;;;;;1.60;1.50;;;;;;;25.30;51.15;94698.47;5012905;28;20120;-92
2023/06/30 10:23:36;;;;;;;1.63;1.52;;;;;;;25.79;50.49;94696.75;4996674;28;20029;-91
2023/06/30 10:26:03;;;;;;;3.65;1.85;;;;;;;25.98;55.03;94687.13;5012197;28;20040;-90
2023/06/30 10:28:28;;;;;;;1.95;1.77;;;;;;;26.14;60.72;94696.59;4996851;28;20033;-92
2023/06/30 10:30:54;;;;;;;1.77;1.42;;;;;;;25.69;49.94;94686.19;5028911;28;20514;-92
2023/06/30 10:33:19;;;;;;;2.13;1.27;;;;;;;26.08;56.05;94689.72;5013975;28;20030;-92
2023/06/30 10:35:45;;;;;;;4.03;1.70;;;;;;;26.04;54.01;94685.25;5011217;28;20030;-92
2023/06/30 10:38:12;;;;;;;1.92;1.70;;;;;;;26.40;56.69;94684.00;5012526;28;20026;-83
2023/06/30 10:40:38;;;;;;;2.20;1.98;;;;;;;25.97;53.28;94677.59;4995966;28;20087;-92
2023/06/30 10:43:06;;;;;;;1.92;1.70;;;;;;;25.23;56.22;94676.75;5011571;28;20013;-91
2023/06/30 10:45:36;;;;;;;2.22;2.08;;;;;;;25.56;55.19;94670.81;5012645;28;20021;-91
2023/06/30 10:48:14;;;;;;;2.08;1.88;;;;;;;25.89;56.20;94661.41;5011461;28;20044;-92
2023/06/30 10:50:47;;;;;;;1.80;1.70;;;;;;;25.25;56.73;94667.44;4996198;28;20048;-90
2023/06/30 10:53:18;;;;;;;2.63;1.98;;;;;;;25.79;59.83;94658.81;4994714;28;20037;-90
2023/06/30 10:55:44;;;;;;;1.70;1.60;;;;;;;26.25;61.65;94657.53;5012180;28;20064;-92
2023/06/30 10:58:10;;;;;;;2.15;1.98;;;;;;;25.76;59.07;94652.19;5012154;28;20056;-89
2023/06/30 11:00:35;;;;;;;2.08;1.80;;;;;;;25.71;56.50;94651.41;5011258;28;20071;-93
2023/06/30 11:03:04;;;;;;;3.33;1.88;;;;;;;25.99;60.99;94648.09;5012015;28;20032;-93
2023/06/30 11:05:32;;;;;;;1.60;1.50;;;;;;;26.23;62.84;94651.72;5010881;28;20449;-92
2023/06/30 11:08:01;;;;;;;2.10;1.90;;;;;;;26.30;58.74;94649.50;4996356;28;20034;-85
2023/06/30 11:10:27;;;;;;;2.33;1.55;;;;;;;26.29;57.11;94650.59;5027805;28;20034;-90
2023/06/30 11:12:56;;;;;;;2.20;1.80;;;;;;;26.48;63.35;94643.56;4995888;28;20053;-88
2023/06/30 11:15:27;;;;;;;2.83;1.83;;;;;;;26.00;54.09;94644.38;5010779;28;20580;-87
2023/06/30 11:17:54;;;;;;;3.25;2.00;;;;;;;25.98;54.06;94628.72;4994444;28;20091;-90
2023/06/30 11:20:26;;;;;;;2.25;2.00;;;;;;;25.89;57.67;94632.22;5011454;28;20421;-92
2023/06/30 11:23:05;;;;;;;1.95;1.75;;;;;;;26.14;58.04;94640.81;5011546;28;20095;-91
2023/06/30 11:25:32;;;;;;;3.03;1.80;;;;;;;26.38;60.07;94637.53;4995443;28;20029;-93
2023/06/30 11:28:00;;;;;;;1.67;1.58;;;;;;;26.45;62.19;94633.50;5011269;28;20522;-94
2023/06/30 11:30:26;;;;;;;2.20;1.70;;;;;;;26.26;59.64;94635.22;5012537;28;20412;-91
2023/06/30 11:32:58;;;;;;;2.42;1.60;;;;;;;26.25;56.72;94623.00;4995731;28;20116;-93
2023/06/30 11:35:23;;;;;;;1.70;1.60;;;;;;;26.56;62.19;94626.22;4993934;28;20025;-93
2023/06/30 11:37:50;;;;;;;2.10;1.90;;;;;;;26.35;56.91;94627.44;5011711;28;20028;-88
2023/06/30 11:40:16;;;;;;;3.90;1.77;;;;;;;26.19;56.66;94616.13;4994320;28;20056;-87
2023/06/30 11:42:42;;;;;;;1.83;1.73;;;;;;;26.18;63.18;94609.22;5029274;28;20029;-90
2023/06/30 11:45:08;;;;;;;1.90;1.80;;;;;;;26.37;61.32;94614.66;5027874;28;20487;-90
2023/06/30 11:47:34;;;;;;;3.22;2.17;;;;;;;26.16;59.91;94606.06;4994859;28;20037;-89
2023/06/30 11:50:10;;;;;;;2.30;2.10;;;;;;;26.47;60.71;94611.94;5011559;28;20028;-91
2023/06/30 11:52:55;;;;;;;3.25;2.67;;;;;;;26.32;59.59;94604.88;5010458;28;20021;-94
2023/06/30 11:55:31;;;;;;;2.08;1.98;;;;;;;26.24;60.39;94599.34;4996044;28;20452;-91
2023/06/30 11:58:09;;;;;;;2.10;1.90;;;;;;;26.35;63.76;94598.22;5027699;28;20115;-91
2023/06/30 12:00:43;;;;;;;2.35;1.83;;;;;;;26.22;66.07;94593.53;5028717;28;20433;-89
2023/06/30 12:03:14;;;;;;;1.90;1.80;;;;;;;26.37;66.05;94601.38;5029249;28;20411;-92
2023/06/30 12:05:41;;;;;;;2.75;1.92;;;;;;;26.49;63.26;94588.56;5027433;28;20041;-90
2023/06/30 12:08:30;;;;;;;3.33;1.70;;;;;;;26.49;63.06;94586.66;5028881;28;20056;-91
2023/06/30 12:11:05;;;;;;;2.85;2.22;;;;;;;26.51;62.51;94581.88;5011522;28;20124;-89
2023/06/30 12:13:38;;;;;;;2.38;2.00;;;;;;;26.76;63.62;94580.06;5013500;28;20108;-87
2023/06/30 12:16:13;;;;;;;1.90;1.80;;;;;;;26.61;63.94;94571.19;5032921;28;20075;-90
2023/06/30 12:18:51;;;;;;;3.92;2.35;;;;;;;26.37;62.50;94572.97;5031447;28;20021;-88
2023/06/30 12:21:33;;;;;;;;;;;;;;;;;;;;;
2023/06/30 12:24:14;;;;;;;2.03;1.80;;;;;;;26.28;66.40;94564.00;5031336;28;20032;-92
2023/06/30 12:26:53;;;;;;;2.25;2.13;;;;;;;26.28;67.52;94557.91;4997346;28;20510;-89